sensor_id;sensor_type;location;lat;lon;timestamp;temperature;humidity
25616;DHT22;13482;48.234;13.006;2023-05-21T14:31:57;33.60;49.20
25616;DHT22;13482;48.234;13.006;2023-05-21T14:34:24;33.60;48.50
25616;DHT22;13482;48.234;13.006;2023-05-21T14:36:52;33.70;48.40
25616;DHT22;13482;48.234;13.006;2023-05-21T14:39:19;33.80;48.40
25616;DHT22;13482;48.234;13.006;2023-05-21T14:41:47;33.80;48.50
25616;DHT22;13482;48.234;13.006;2023-05-21T14:44:15;33.90;48.60
25616;DHT22;13482;48.234;13.006;2023-05-21T14:46:43;33.90;48.70
25616;DHT22;13482;48.234;13.006;2023-05-21T14:49:11;34.00;48.90
25616;DHT22;13482;48.234;13.006;2023-05-21T14:51:42;34.00;48.90
25616;DHT22;13482;48.234;13.006;2023-05-21T14:54:10;34.10;48.60
25616;DHT22;13482;48.234;13.006;2023-05-21T14:56:38;34.10;48.30
25616;DHT22;13482;48.234;13.006;2023-05-21T14:59:05;34.10;48.30
25616;DHT22;13482;48.234;13.006;2023-05-21T15:01:33;34.10;48.30
25616;DHT22;13482;48.234;13.006;2023-05-21T15:04:01;34.10;48.30
25616;DHT22;13482;48.234;13.006;2023-05-21T15:06:29;34.10;48.30
25616;DHT22;13482;48.234;13.006;2023-05-21T15:08:57;34.10;48.30
25616;DHT22;13482;48.234;13.006;2023-05-21T15:11:24;34.10;48.20
25616;DHT22;13482;48.234;13.006;2023-05-21T15:13:52;34.10;48.10
25616;DHT22;13482;48.234;13.006;2023-05-21T15:16:19;34.10;48.40
25616;DHT22;13482;48.234;13.006;2023-05-21T15:18:47;34.10;48.50
25616;DHT22;13482;48.234;13.006;2023-05-21T15:21:16;34.10;48.60
25616;DHT22;13482;48.234;13.006;2023-05-21T15:23:43;34.10;48.40
25616;DHT22;13482;48.234;13.006;2023-05-21T15:26:11;34.10;48.20
25616;DHT22;13482;48.234;13.006;2023-05-21T15:28:38;34.10;48.10
25616;DHT22;13482;48.234;13.006;2023-05-21T15:31:05;34.10;48.10
25616;DHT22;13482;48.234;13.006;2023-05-21T15:33:33;34.10;48.20
25616;DHT22;13482;48.234;13.006;2023-05-21T15:36:00;34.10;48.20
25616;DHT22;13482;48.234;13.006;2023-05-21T15:38:28;34.10;48.30
25616;DHT22;13482;48.234;13.006;2023-05-21T15:40:56;34.10;48.40
25616;DHT22;13482;48.234;13.006;2023-05-21T15:43:24;34.20;48.40
25616;DHT22;13482;48.234;13.006;2023-05-21T15:45:51;34.30;48.40
25616;DHT22;13482;48.234;13.006;2023-05-21T15:48:18;34.40;48.30
25616;DHT22;13482;48.234;13.006;2023-05-21T15:50:49;34.50;48.10
25616;DHT22;13482;48.234;13.006;2023-05-21T15:53:16;34.60;48.30
25616;DHT22;13482;48.234;13.006;2023-05-21T15:55:43;34.70;48.20
25616;DHT22;13482;48.234;13.006;2023-05-21T15:58:11;34.80;48.20
25616;DHT22;13482;48.234;13.006;2023-05-21T16:00:44;34.90;48.20
25616;DHT22;13482;48.234;13.006;2023-05-21T16:03:22;35.10;47.70
25616;DHT22;13482;48.234;13.006;2023-05-21T16:05:54;35.20;47.90
25616;DHT22;13482;48.234;13.006;2023-05-21T16:08:21;35.30;48.00
25616;DHT22;13482;48.234;13.006;2023-05-21T16:10:49;35.50;47.70
25616;DHT22;13482;48.234;13.006;2023-05-21T16:13:16;35.60;47.70
25616;DHT22;13482;48.234;13.006;2023-05-21T16:15:44;35.80;47.60
25616;DHT22;13482;48.234;13.006;2023-05-21T16:18:11;36.00;47.70
25616;DHT22;13482;48.234;13.006;2023-05-21T16:20:39;36.20;47.50
25616;DHT22;13482;48.234;13.006;2023-05-21T16:23:06;36.40;47.20
25616;DHT22;13482;48.234;13.006;2023-05-21T16:25:34;36.60;46.80
25616;DHT22;13482;48.234;13.006;2023-05-21T16:28:03;36.80;46.80
25616;DHT22;13482;48.234;13.006;2023-05-21T16:30:30;36.90;46.70
25616;DHT22;13482;48.234;13.006;2023-05-21T16:32:58;37.10;46.40
25616;DHT22;13482;48.234;13.006;2023-05-21T16:35:25;37.30;46.20
25616;DHT22;13482;48.234;13.006;2023-05-21T16:37:53;37.40;46.30
25616;DHT22;13482;48.234;13.006;2023-05-21T16:40:20;37.50;46.30
25616;DHT22;13482;48.234;13.006;2023-05-21T16:42:48;37.70;45.90
25616;DHT22;13482;48.234;13.006;2023-05-21T16:45:16;37.80;45.90
25616;DHT22;13482;48.234;13.006;2023-05-21T16:47:47;38.00;45.70
25616;DHT22;13482;48.234;13.006;2023-05-21T16:50:19;38.10;45.40
25616;DHT22;13482;48.234;13.006;2023-05-21T16:52:55;38.20;45.20
25616;DHT22;13482;48.234;13.006;2023-05-21T16:55:25;38.40;44.50
25616;DHT22;13482;48.234;13.006;2023-05-21T16:57:52;38.50;45.10
25616;DHT22;13482;48.234;13.006;2023-05-21T17:00:20;38.60;44.80
25616;DHT22;13482;48.234;13.006;2023-05-21T17:02:47;38.80;44.50
25616;DHT22;13482;48.234;13.006;2023-05-21T17:05:15;38.90;44.40
25616;DHT22;13482;48.234;13.006;2023-05-21T17:07:42;38.90;44.00
25616;DHT22;13482;48.234;13.006;2023-05-21T17:10:10;39.00;43.70
25616;DHT22;13482;48.234;13.006;2023-05-21T17:12:37;39.00;43.70
25616;DHT22;13482;48.234;13.006;2023-05-21T17:15:05;39.00;43.40
25616;DHT22;13482;48.234;13.006;2023-05-21T17:17:33;38.90;43.30
25616;DHT22;13482;48.234;13.006;2023-05-21T17:20:01;38.90;43.20
25616;DHT22;13482;48.234;13.006;2023-05-21T17:22:29;38.80;43.20
25616;DHT22;13482;48.234;13.006;2023-05-21T17:24:56;38.70;43.30
25616;DHT22;13482;48.234;13.006;2023-05-21T17:27:24;38.60;43.10
25616;DHT22;13482;48.234;13.006;2023-05-21T17:29:52;38.60;43.10
25616;DHT22;13482;48.234;13.006;2023-05-21T17:32:20;38.50;43.10
25616;DHT22;13482;48.234;13.006;2023-05-21T17:34:47;38.40;43.00
25616;DHT22;13482;48.234;13.006;2023-05-21T17:37:15;38.30;43.00
25616;DHT22;13482;48.234;13.006;2023-05-21T17:39:42;38.20;42.90
25616;DHT22;13482;48.234;13.006;2023-05-21T17:42:10;38.10;42.90
25616;DHT22;13482;48.234;13.006;2023-05-21T17:44:37;37.90;42.80
25616;DHT22;13482;48.234;13.006;2023-05-21T17:47:05;37.80;42.80
25616;DHT22;13482;48.234;13.006;2023-05-21T17:49:33;37.60;42.80
25616;DHT22;13482;48.234;13.006;2023-05-21T17:52:01;37.40;42.90
25616;DHT22;13482;48.234;13.006;2023-05-21T17:54:30;37.20;42.90
25616;DHT22;13482;48.234;13.006;2023-05-21T17:56:58;37.00;43.00
25616;DHT22;13482;48.234;13.006;2023-05-21T17:59:25;36.80;43.00
25616;DHT22;13482;48.234;13.006;2023-05-21T18:01:52;36.60;43.00
25616;DHT22;13482;48.234;13.006;2023-05-21T18:04:21;36.30;43.20
25616;DHT22;13482;48.234;13.006;2023-05-21T18:06:48;36.10;43.20
25616;DHT22;13482;48.234;13.006;2023-05-21T18:09:17;35.80;43.30
25616;DHT22;13482;48.234;13.006;2023-05-21T18:11:45;35.50;43.30
25616;DHT22;13482;48.234;13.006;2023-05-21T18:14:13;35.20;43.50
25616;DHT22;13482;48.234;13.006;2023-05-21T18:16:40;34.90;43.70
25616;DHT22;13482;48.234;13.006;2023-05-21T18:19:08;34.50;43.70
25616;DHT22;13482;48.234;13.006;2023-05-21T18:21:36;34.20;43.80
25616;DHT22;13482;48.234;13.006;2023-05-21T18:24:04;33.80;44.00
25616;DHT22;13482;48.234;13.006;2023-05-21T18:26:33;33.40;44.10
25616;DHT22;13482;48.234;13.006;2023-05-21T18:29:00;32.90;44.30
25616;DHT22;13482;48.234;13.006;2023-05-21T18:31:28;32.50;44.60
25616;DHT22;13482;48.234;13.006;2023-05-21T18:33:56;32.10;44.80
25616;DHT22;13482;48.234;13.006;2023-05-21T18:36:23;31.60;44.90
25616;DHT22;13482;48.234;13.006;2023-05-21T18:38:52;31.20;45.20
25616;DHT22;13482;48.234;13.006;2023-05-21T18:41:20;30.80;45.50
25616;DHT22;13482;48.234;13.006;2023-05-21T18:43:48;30.40;45.80
25616;DHT22;13482;48.234;13.006;2023-05-21T18:46:15;30.00;46.10
25616;DHT22;13482;48.234;13.006;2023-05-21T18:48:43;29.60;46.40
25616;DHT22;13482;48.234;13.006;2023-05-21T18:51:12;29.30;46.70
25616;DHT22;13482;48.234;13.006;2023-05-21T18:53:40;29.00;47.00
25616;DHT22;13482;48.234;13.006;2023-05-21T18:56:07;28.60;47.30
25616;DHT22;13482;48.234;13.006;2023-05-21T18:58:36;28.30;47.60
25616;DHT22;13482;48.234;13.006;2023-05-21T19:01:05;28.10;47.90
25616;DHT22;13482;48.234;13.006;2023-05-21T19:03:32;27.80;48.20
25616;DHT22;13482;48.234;13.006;2023-05-21T19:06:00;27.50;48.40
25616;DHT22;13482;48.234;13.006;2023-05-21T19:08:28;27.30;48.70
25616;DHT22;13482;48.234;13.006;2023-05-21T19:10:55;27.10;48.90
25616;DHT22;13482;48.234;13.006;2023-05-21T19:13:22;26.90;49.10
25616;DHT22;13482;48.234;13.006;2023-05-21T19:15:51;26.70;49.20
25616;DHT22;13482;48.234;13.006;2023-05-21T19:18:18;26.50;49.50
25616;DHT22;13482;48.234;13.006;2023-05-21T19:20:45;26.30;49.80
25616;DHT22;13482;48.234;13.006;2023-05-21T19:23:13;26.10;50.00
25616;DHT22;13482;48.234;13.006;2023-05-21T19:25:41;26.00;50.20
25616;DHT22;13482;48.234;13.006;2023-05-21T19:28:12;25.80;50.40
25616;DHT22;13482;48.234;13.006;2023-05-21T19:30:39;25.70;50.50
25616;DHT22;13482;48.234;13.006;2023-05-21T19:33:07;25.50;50.70
25616;DHT22;13482;48.234;13.006;2023-05-21T19:35:35;25.40;51.00
25616;DHT22;13482;48.234;13.006;2023-05-21T19:38:04;25.20;51.10
25616;DHT22;13482;48.234;13.006;2023-05-21T19:40:32;25.10;51.30
25616;DHT22;13482;48.234;13.006;2023-05-21T19:43:00;25.00;51.50
25616;DHT22;13482;48.234;13.006;2023-05-21T19:45:28;24.90;51.60
25616;DHT22;13482;48.234;13.006;2023-05-21T19:47:56;24.80;51.80
25616;DHT22;13482;48.234;13.006;2023-05-21T19:50:26;24.70;52.00
25616;DHT22;13482;48.234;13.006;2023-05-21T19:52:55;24.60;52.10
25616;DHT22;13482;48.234;13.006;2023-05-21T19:55:25;24.50;52.20
25616;DHT22;13482;48.234;13.006;2023-05-21T19:57:54;24.30;52.40
25616;DHT22;13482;48.234;13.006;2023-05-21T20:00:22;24.30;52.50
25616;DHT22;13482;48.234;13.006;2023-05-21T20:02:50;24.20;52.70
25616;DHT22;13482;48.234;13.006;2023-05-21T20:05:18;24.10;52.90
25616;DHT22;13482;48.234;13.006;2023-05-21T20:07:46;24.00;53.00
25616;DHT22;13482;48.234;13.006;2023-05-21T20:10:13;23.90;53.10
25616;DHT22;13482;48.234;13.006;2023-05-21T20:12:41;23.90;53.30
25616;DHT22;13482;48.234;13.006;2023-05-21T20:15:09;23.80;53.30
25616;DHT22;13482;48.234;13.006;2023-05-21T20:17:39;23.70;53.50
25616;DHT22;13482;48.234;13.006;2023-05-21T20:20:11;23.60;53.60
25616;DHT22;13482;48.234;13.006;2023-05-21T20:22:39;23.60;53.70
25616;DHT22;13482;48.234;13.006;2023-05-21T20:25:08;23.50;53.70
25616;DHT22;13482;48.234;13.006;2023-05-21T20:27:36;23.40;53.80
25616;DHT22;13482;48.234;13.006;2023-05-21T20:30:06;23.30;53.90
25616;DHT22;13482;48.234;13.006;2023-05-21T20:32:35;23.30;54.10
25616;DHT22;13482;48.234;13.006;2023-05-21T20:35:05;23.20;54.20
25616;DHT22;13482;48.234;13.006;2023-05-21T20:37:35;23.10;54.20
25616;DHT22;13482;48.234;13.006;2023-05-21T20:40:03;23.00;54.30
25616;DHT22;13482;48.234;13.006;2023-05-21T20:42:32;23.00;54.40
25616;DHT22;13482;48.234;13.006;2023-05-21T20:45:01;22.90;54.50
25616;DHT22;13482;48.234;13.006;2023-05-21T20:47:30;22.80;54.70
25616;DHT22;13482;48.234;13.006;2023-05-21T20:50:00;22.70;54.70
25616;DHT22;13482;48.234;13.006;2023-05-21T20:52:29;22.70;54.80
25616;DHT22;13482;48.234;13.006;2023-05-21T20:54:56;22.60;54.80
25616;DHT22;13482;48.234;13.006;2023-05-21T20:57:26;22.50;55.00
25616;DHT22;13482;48.234;13.006;2023-05-21T20:59:54;22.50;55.10
25616;DHT22;13482;48.234;13.006;2023-05-21T21:02:23;22.40;55.10
25616;DHT22;13482;48.234;13.006;2023-05-21T21:04:50;22.40;55.20
25616;DHT22;13482;48.234;13.006;2023-05-21T21:07:19;22.30;55.30
25616;DHT22;13482;48.234;13.006;2023-05-21T21:09:48;22.20;55.40
25616;DHT22;13482;48.234;13.006;2023-05-21T21:12:15;22.10;55.60
25616;DHT22;13482;48.234;13.006;2023-05-21T21:14:45;22.10;55.60
25616;DHT22;13482;48.234;13.006;2023-05-21T21:17:13;22.00;55.60
25616;DHT22;13482;48.234;13.006;2023-05-21T21:19:40;21.90;55.70
25616;DHT22;13482;48.234;13.006;2023-05-21T21:22:08;21.80;55.80
25616;DHT22;13482;48.234;13.006;2023-05-21T21:24:35;21.80;55.90
25616;DHT22;13482;48.234;13.006;2023-05-21T21:27:03;21.70;56.10
25616;DHT22;13482;48.234;13.006;2023-05-21T21:29:30;21.60;56.20
25616;DHT22;13482;48.234;13.006;2023-05-21T21:31:58;21.60;56.30
25616;DHT22;13482;48.234;13.006;2023-05-21T21:34:25;21.50;56.40
25616;DHT22;13482;48.234;13.006;2023-05-21T21:36:53;21.40;56.40
25616;DHT22;13482;48.234;13.006;2023-05-21T21:39:21;21.30;56.60
25616;DHT22;13482;48.234;13.006;2023-05-21T21:41:48;21.30;56.70
25616;DHT22;13482;48.234;13.006;2023-05-21T21:44:16;21.20;56.70
25616;DHT22;13482;48.234;13.006;2023-05-21T21:46:43;21.20;56.90
25616;DHT22;13482;48.234;13.006;2023-05-21T21:49:10;21.20;56.90
25616;DHT22;13482;48.234;13.006;2023-05-21T21:51:38;21.10;57.00
25616;DHT22;13482;48.234;13.006;2023-05-21T21:54:06;21.10;57.10
25616;DHT22;13482;48.234;13.006;2023-05-21T21:56:33;21.00;57.10
25616;DHT22;13482;48.234;13.006;2023-05-21T21:59:01;21.00;57.30
25616;DHT22;13482;48.234;13.006;2023-05-21T22:01:28;21.00;57.40
25616;DHT22;13482;48.234;13.006;2023-05-21T22:03:56;20.90;57.50
25616;DHT22;13482;48.234;13.006;2023-05-21T22:06:23;20.90;57.50
25616;DHT22;13482;48.234;13.006;2023-05-21T22:08:51;20.90;57.60
25616;DHT22;13482;48.234;13.006;2023-05-21T22:11:18;20.80;57.70
25616;DHT22;13482;48.234;13.006;2023-05-21T22:13:47;20.80;57.70
25616;DHT22;13482;48.234;13.006;2023-05-21T22:16:15;20.80;57.70
25616;DHT22;13482;48.234;13.006;2023-05-21T22:18:42;20.80;57.60
25616;DHT22;13482;48.234;13.006;2023-05-21T22:21:10;20.70;57.60
25616;DHT22;13482;48.234;13.006;2023-05-21T22:23:40;20.70;57.80
25616;DHT22;13482;48.234;13.006;2023-05-21T22:26:08;20.60;57.80
25616;DHT22;13482;48.234;13.006;2023-05-21T22:28:36;20.60;58.10
25616;DHT22;13482;48.234;13.006;2023-05-21T22:31:03;20.60;58.20
25616;DHT22;13482;48.234;13.006;2023-05-21T22:33:31;20.50;58.40
25616;DHT22;13482;48.234;13.006;2023-05-21T22:35:59;20.50;58.40
25616;DHT22;13482;48.234;13.006;2023-05-21T22:38:26;20.40;58.50
25616;DHT22;13482;48.234;13.006;2023-05-21T22:40:53;20.40;58.50
25616;DHT22;13482;48.234;13.006;2023-05-21T22:43:21;20.30;58.40
25616;DHT22;13482;48.234;13.006;2023-05-21T22:45:49;20.30;58.40
25616;DHT22;13482;48.234;13.006;2023-05-21T22:48:16;20.20;58.50
25616;DHT22;13482;48.234;13.006;2023-05-21T22:50:44;20.20;58.60
25616;DHT22;13482;48.234;13.006;2023-05-21T22:53:12;20.10;58.60
25616;DHT22;13482;48.234;13.006;2023-05-21T22:55:39;20.10;58.60
25616;DHT22;13482;48.234;13.006;2023-05-21T22:58:06;20.00;58.60
25616;DHT22;13482;48.234;13.006;2023-05-21T23:00:34;20.00;58.80
25616;DHT22;13482;48.234;13.006;2023-05-21T23:03:01;19.90;58.90
25616;DHT22;13482;48.234;13.006;2023-05-21T23:05:29;19.90;58.80
25616;DHT22;13482;48.234;13.006;2023-05-21T23:07:57;19.80;58.90
25616;DHT22;13482;48.234;13.006;2023-05-21T23:10:24;19.80;59.00
25616;DHT22;13482;48.234;13.006;2023-05-21T23:12:52;19.70;59.00
25616;DHT22;13482;48.234;13.006;2023-05-21T23:15:20;19.60;59.20
25616;DHT22;13482;48.234;13.006;2023-05-21T23:17:48;19.60;59.20
25616;DHT22;13482;48.234;13.006;2023-05-21T23:20:16;19.50;59.30
25616;DHT22;13482;48.234;13.006;2023-05-21T23:22:43;19.40;59.40
25616;DHT22;13482;48.234;13.006;2023-05-21T23:25:11;19.40;59.40
25616;DHT22;13482;48.234;13.006;2023-05-21T23:27:38;19.30;59.50
25616;DHT22;13482;48.234;13.006;2023-05-21T23:30:06;19.30;59.60
25616;DHT22;13482;48.234;13.006;2023-05-21T23:32:35;19.30;59.70
25616;DHT22;13482;48.234;13.006;2023-05-21T23:35:02;19.20;59.70
25616;DHT22;13482;48.234;13.006;2023-05-21T23:37:30;19.20;59.80
25616;DHT22;13482;48.234;13.006;2023-05-21T23:39:58;19.10;59.90
25616;DHT22;13482;48.234;13.006;2023-05-21T23:42:25;19.10;59.90
25616;DHT22;13482;48.234;13.006;2023-05-21T23:44:52;19.00;60.10
25616;DHT22;13482;48.234;13.006;2023-05-21T23:47:20;19.00;60.10
25616;DHT22;13482;48.234;13.006;2023-05-21T23:49:47;18.90;60.20
25616;DHT22;13482;48.234;13.006;2023-05-21T23:52:14;18.90;60.20
25616;DHT22;13482;48.234;13.006;2023-05-21T23:54:44;18.80;60.40
25616;DHT22;13482;48.234;13.006;2023-05-21T23:57:12;18.80;60.50
25616;DHT22;13482;48.234;13.006;2023-05-21T23:59:39;18.80;60.60
